sensor_id;sensor_type;location;lat;lon;timestamp;P1;durP1;ratioP1;P2;durP2;ratioP2
39958;SDS011;25639;53.634;9.880;2023-05-14T00:01:27;14.60;;;8.30;;
39958;SDS011;25639;53.634;9.880;2023-05-14T00:03:52;10.73;;;7.55;;
39958;SDS011;25639;53.634;9.880;2023-05-14T00:06:17;13.35;;;7.82;;
39958;SDS011;25639;53.634;9.880;2023-05-14T00:08:43;14.50;;;7.97;;
39958;SDS011;25639;53.634;9.880;2023-05-14T00:11:08;10.45;;;7.95;;
39958;SDS011;25639;53.634;9.880;2023-05-14T00:13:33;10.60;;;7.63;;
39958;SDS011;25639;53.634;9.880;2023-05-14T00:15:59;12.15;;;7.07;;
39958;SDS011;25639;53.634;9.880;2023-05-14T00:18:25;12.70;;;7.78;;
39958;SDS011;25639;53.634;9.880;2023-05-14T00:20:50;11.80;;;6.97;;
39958;SDS011;25639;53.634;9.880;2023-05-14T00:23:18;14.75;;;7.78;;
39958;SDS011;25639;53.634;9.880;2023-05-14T00:25:47;10.20;;;7.15;;
39958;SDS011;25639;53.634;9.880;2023-05-14T00:28:12;14.00;;;8.82;;
39958;SDS011;25639;53.634;9.880;2023-05-14T00:30:37;16.75;;;7.78;;
39958;SDS011;25639;53.634;9.880;2023-05-14T00:33:03;11.18;;;7.47;;
39958;SDS011;25639;53.634;9.880;2023-05-14T00:35:29;13.85;;;7.90;;
39958;SDS011;25639;53.634;9.880;2023-05-14T00:37:55;15.73;;;7.80;;
39958;SDS011;25639;53.634;9.880;2023-05-14T00:40:21;14.43;;;7.53;;
39958;SDS011;25639;53.634;9.880;2023-05-14T00:42:50;13.52;;;7.90;;
39958;SDS011;25639;53.634;9.880;2023-05-14T00:45:15;10.95;;;7.40;;
39958;SDS011;25639;53.634;9.880;2023-05-14T00:47:40;15.35;;;7.60;;
39958;SDS011;25639;53.634;9.880;2023-05-14T00:50:06;18.55;;;8.45;;
39958;SDS011;25639;53.634;9.880;2023-05-14T00:52:32;11.95;;;8.82;;
39958;SDS011;25639;53.634;9.880;2023-05-14T00:54:58;17.67;;;8.32;;
39958;SDS011;25639;53.634;9.880;2023-05-14T00:57:24;10.80;;;8.30;;
39958;SDS011;25639;53.634;9.880;2023-05-14T00:59:50;14.00;;;7.80;;
39958;SDS011;25639;53.634;9.880;2023-05-14T01:02:15;15.40;;;8.27;;
39958;SDS011;25639;53.634;9.880;2023-05-14T01:04:40;11.30;;;8.20;;
39958;SDS011;25639;53.634;9.880;2023-05-14T01:10:23;14.82;;;8.10;;
39958;SDS011;25639;53.634;9.880;2023-05-14T01:15:42;16.23;;;8.32;;
39958;SDS011;25639;53.634;9.880;2023-05-14T01:18:12;13.02;;;7.88;;
39958;SDS011;25639;53.634;9.880;2023-05-14T01:20:40;13.57;;;9.02;;
39958;SDS011;25639;53.634;9.880;2023-05-14T01:23:06;11.38;;;8.10;;
39958;SDS011;25639;53.634;9.880;2023-05-14T01:25:31;15.23;;;8.48;;
39958;SDS011;25639;53.634;9.880;2023-05-14T01:33:53;11.95;;;8.32;;
39958;SDS011;25639;53.634;9.880;2023-05-14T01:36:22;14.45;;;8.20;;
39958;SDS011;25639;53.634;9.880;2023-05-14T01:38:48;11.18;;;7.72;;
39958;SDS011;25639;53.634;9.880;2023-05-14T01:41:15;13.35;;;7.88;;
39958;SDS011;25639;53.634;9.880;2023-05-14T01:43:44;15.38;;;9.05;;
39958;SDS011;25639;53.634;9.880;2023-05-14T01:46:09;13.63;;;8.35;;
39958;SDS011;25639;53.634;9.880;2023-05-14T01:48:35;10.23;;;7.90;;
39958;SDS011;25639;53.634;9.880;2023-05-14T01:51:01;12.07;;;8.80;;
39958;SDS011;25639;53.634;9.880;2023-05-14T01:53:27;13.15;;;8.82;;
39958;SDS011;25639;53.634;9.880;2023-05-14T01:55:52;13.43;;;8.65;;
39958;SDS011;25639;53.634;9.880;2023-05-14T01:58:17;12.27;;;8.43;;
39958;SDS011;25639;53.634;9.880;2023-05-14T02:00:43;13.38;;;8.27;;
39958;SDS011;25639;53.634;9.880;2023-05-14T02:03:09;13.02;;;8.85;;
39958;SDS011;25639;53.634;9.880;2023-05-14T02:05:34;16.30;;;8.40;;
39958;SDS011;25639;53.634;9.880;2023-05-14T02:07:59;13.77;;;8.52;;
39958;SDS011;25639;53.634;9.880;2023-05-14T02:10:25;11.40;;;8.30;;
39958;SDS011;25639;53.634;9.880;2023-05-14T02:12:50;10.48;;;7.93;;
39958;SDS011;25639;53.634;9.880;2023-05-14T02:15:15;11.85;;;8.23;;
39958;SDS011;25639;53.634;9.880;2023-05-14T02:17:40;12.63;;;8.63;;
39958;SDS011;25639;53.634;9.880;2023-05-14T02:20:06;12.05;;;7.75;;
39958;SDS011;25639;53.634;9.880;2023-05-14T02:22:32;13.65;;;9.00;;
39958;SDS011;25639;53.634;9.880;2023-05-14T02:24:57;14.18;;;9.55;;
39958;SDS011;25639;53.634;9.880;2023-05-14T02:27:22;15.05;;;9.73;;
39958;SDS011;25639;53.634;9.880;2023-05-14T02:29:48;11.18;;;8.68;;
39958;SDS011;25639;53.634;9.880;2023-05-14T02:32:13;12.60;;;9.27;;
39958;SDS011;25639;53.634;9.880;2023-05-14T02:34:38;11.40;;;8.05;;
39958;SDS011;25639;53.634;9.880;2023-05-14T02:37:03;11.70;;;8.48;;
39958;SDS011;25639;53.634;9.880;2023-05-14T02:39:32;11.43;;;8.55;;
39958;SDS011;25639;53.634;9.880;2023-05-14T02:41:57;13.48;;;8.80;;
39958;SDS011;25639;53.634;9.880;2023-05-14T02:44:22;14.02;;;8.77;;
39958;SDS011;25639;53.634;9.880;2023-05-14T02:46:48;15.18;;;8.15;;
39958;SDS011;25639;53.634;9.880;2023-05-14T02:49:13;12.40;;;7.88;;
39958;SDS011;25639;53.634;9.880;2023-05-14T02:51:38;12.65;;;8.10;;
39958;SDS011;25639;53.634;9.880;2023-05-14T02:54:03;12.40;;;8.65;;
39958;SDS011;25639;53.634;9.880;2023-05-14T02:56:29;16.15;;;9.13;;
39958;SDS011;25639;53.634;9.880;2023-05-14T02:58:54;10.73;;;8.30;;
39958;SDS011;25639;53.634;9.880;2023-05-14T03:01:19;9.80;;;7.97;;
39958;SDS011;25639;53.634;9.880;2023-05-14T03:03:45;13.07;;;7.95;;
39958;SDS011;25639;53.634;9.880;2023-05-14T03:06:10;12.50;;;7.90;;
39958;SDS011;25639;53.634;9.880;2023-05-14T03:08:36;12.27;;;7.78;;
39958;SDS011;25639;53.634;9.880;2023-05-14T03:11:01;12.02;;;8.30;;
39958;SDS011;25639;53.634;9.880;2023-05-14T03:13:26;10.13;;;7.75;;
39958;SDS011;25639;53.634;9.880;2023-05-14T03:15:52;12.07;;;8.00;;
39958;SDS011;25639;53.634;9.880;2023-05-14T03:18:18;11.60;;;8.35;;
39958;SDS011;25639;53.634;9.880;2023-05-14T03:20:44;11.80;;;8.23;;
39958;SDS011;25639;53.634;9.880;2023-05-14T03:23:10;13.68;;;7.32;;
39958;SDS011;25639;53.634;9.880;2023-05-14T03:25:35;9.85;;;7.28;;
39958;SDS011;25639;53.634;9.880;2023-05-14T03:28:00;14.43;;;7.97;;
39958;SDS011;25639;53.634;9.880;2023-05-14T03:30:26;11.30;;;7.68;;
39958;SDS011;25639;53.634;9.880;2023-05-14T03:32:51;12.77;;;7.78;;
39958;SDS011;25639;53.634;9.880;2023-05-14T03:35:16;10.55;;;8.15;;
39958;SDS011;25639;53.634;9.880;2023-05-14T03:37:42;11.95;;;8.30;;
39958;SDS011;25639;53.634;9.880;2023-05-14T03:40:07;10.25;;;8.05;;
39958;SDS011;25639;53.634;9.880;2023-05-14T03:42:33;10.48;;;8.00;;
39958;SDS011;25639;53.634;9.880;2023-05-14T03:44:58;9.93;;;8.02;;
39958;SDS011;25639;53.634;9.880;2023-05-14T03:47:23;12.85;;;8.23;;
39958;SDS011;25639;53.634;9.880;2023-05-14T03:49:49;11.30;;;7.88;;
39958;SDS011;25639;53.634;9.880;2023-05-14T03:52:14;13.82;;;7.90;;
39958;SDS011;25639;53.634;9.880;2023-05-14T03:54:39;10.45;;;7.35;;
39958;SDS011;25639;53.634;9.880;2023-05-14T03:57:05;14.15;;;8.23;;
39958;SDS011;25639;53.634;9.880;2023-05-14T03:59:30;11.25;;;8.38;;
39958;SDS011;25639;53.634;9.880;2023-05-14T04:01:55;14.82;;;8.77;;
39958;SDS011;25639;53.634;9.880;2023-05-14T04:04:21;10.77;;;8.23;;
39958;SDS011;25639;53.634;9.880;2023-05-14T04:06:46;11.23;;;7.75;;
39958;SDS011;25639;53.634;9.880;2023-05-14T04:09:11;14.18;;;9.48;;
39958;SDS011;25639;53.634;9.880;2023-05-14T04:11:36;10.10;;;8.32;;
39958;SDS011;25639;53.634;9.880;2023-05-14T04:14:02;10.90;;;8.30;;
39958;SDS011;25639;53.634;9.880;2023-05-14T04:16:27;13.40;;;8.02;;
39958;SDS011;25639;53.634;9.880;2023-05-14T04:18:52;11.93;;;8.20;;
39958;SDS011;25639;53.634;9.880;2023-05-14T04:21:18;11.73;;;8.30;;
39958;SDS011;25639;53.634;9.880;2023-05-14T04:23:43;9.75;;;7.50;;
39958;SDS011;25639;53.634;9.880;2023-05-14T04:26:08;10.35;;;7.70;;
39958;SDS011;25639;53.634;9.880;2023-05-14T04:28:33;9.35;;;7.45;;
39958;SDS011;25639;53.634;9.880;2023-05-14T04:30:59;10.50;;;7.40;;
39958;SDS011;25639;53.634;9.880;2023-05-14T04:33:24;12.35;;;7.32;;
39958;SDS011;25639;53.634;9.880;2023-05-14T04:35:50;10.73;;;7.57;;
39958;SDS011;25639;53.634;9.880;2023-05-14T04:38:16;9.27;;;7.18;;
39958;SDS011;25639;53.634;9.880;2023-05-14T04:40:41;15.70;;;7.03;;
39958;SDS011;25639;53.634;9.880;2023-05-14T04:43:06;11.23;;;6.80;;
39958;SDS011;25639;53.634;9.880;2023-05-14T04:45:32;9.93;;;7.20;;
39958;SDS011;25639;53.634;9.880;2023-05-14T04:47:57;10.80;;;7.20;;
39958;SDS011;25639;53.634;9.880;2023-05-14T04:50:22;9.45;;;6.75;;
39958;SDS011;25639;53.634;9.880;2023-05-14T04:52:48;9.02;;;6.63;;
39958;SDS011;25639;53.634;9.880;2023-05-14T04:55:13;9.45;;;6.75;;
39958;SDS011;25639;53.634;9.880;2023-05-14T04:57:38;12.15;;;6.70;;
39958;SDS011;25639;53.634;9.880;2023-05-14T05:00:04;8.68;;;6.25;;
39958;SDS011;25639;53.634;9.880;2023-05-14T05:02:30;11.18;;;6.47;;
39958;SDS011;25639;53.634;9.880;2023-05-14T05:04:55;12.25;;;6.18;;
39958;SDS011;25639;53.634;9.880;2023-05-14T05:07:20;7.90;;;6.18;;
39958;SDS011;25639;53.634;9.880;2023-05-14T05:09:46;7.72;;;5.80;;
39958;SDS011;25639;53.634;9.880;2023-05-14T05:12:11;9.65;;;5.70;;
39958;SDS011;25639;53.634;9.880;2023-05-14T05:14:36;8.98;;;5.75;;
39958;SDS011;25639;53.634;9.880;2023-05-14T05:17:01;10.40;;;5.45;;
39958;SDS011;25639;53.634;9.880;2023-05-14T05:19:27;8.35;;;5.43;;
39958;SDS011;25639;53.634;9.880;2023-05-14T05:21:53;6.63;;;5.45;;
39958;SDS011;25639;53.634;9.880;2023-05-14T05:24:18;11.48;;;5.57;;
39958;SDS011;25639;53.634;9.880;2023-05-14T05:26:43;7.50;;;5.60;;
39958;SDS011;25639;53.634;9.880;2023-05-14T05:29:09;11.95;;;5.63;;
39958;SDS011;25639;53.634;9.880;2023-05-14T05:31:34;11.77;;;5.53;;
39958;SDS011;25639;53.634;9.880;2023-05-14T05:34:00;9.32;;;5.88;;
39958;SDS011;25639;53.634;9.880;2023-05-14T05:36:26;8.88;;;5.80;;
39958;SDS011;25639;53.634;9.880;2023-05-14T05:38:52;6.72;;;5.82;;
39958;SDS011;25639;53.634;9.880;2023-05-14T05:41:17;9.35;;;5.32;;
39958;SDS011;25639;53.634;9.880;2023-05-14T05:43:43;11.60;;;5.07;;
39958;SDS011;25639;53.634;9.880;2023-05-14T05:46:08;9.75;;;5.57;;
39958;SDS011;25639;53.634;9.880;2023-05-14T05:48:33;10.75;;;5.80;;
39958;SDS011;25639;53.634;9.880;2023-05-14T05:50:59;7.85;;;5.60;;
39958;SDS011;25639;53.634;9.880;2023-05-14T05:53:24;10.27;;;5.57;;
39958;SDS011;25639;53.634;9.880;2023-05-14T05:55:50;8.82;;;5.30;;
39958;SDS011;25639;53.634;9.880;2023-05-14T05:58:18;8.93;;;5.32;;
39958;SDS011;25639;53.634;9.880;2023-05-14T06:00:43;7.30;;;4.97;;
39958;SDS011;25639;53.634;9.880;2023-05-14T06:03:09;8.43;;;5.15;;
39958;SDS011;25639;53.634;9.880;2023-05-14T06:05:35;9.13;;;5.25;;
39958;SDS011;25639;53.634;9.880;2023-05-14T06:08:00;7.53;;;5.22;;
39958;SDS011;25639;53.634;9.880;2023-05-14T06:10:26;7.95;;;5.07;;
39958;SDS011;25639;53.634;9.880;2023-05-14T06:12:51;7.75;;;4.95;;
39958;SDS011;25639;53.634;9.880;2023-05-14T06:15:17;9.05;;;4.60;;
39958;SDS011;25639;53.634;9.880;2023-05-14T06:17:42;8.77;;;5.10;;
39958;SDS011;25639;53.634;9.880;2023-05-14T06:20:08;6.18;;;4.32;;
39958;SDS011;25639;53.634;9.880;2023-05-14T06:22:33;7.18;;;4.60;;
39958;SDS011;25639;53.634;9.880;2023-05-14T06:24:59;7.80;;;4.80;;
39958;SDS011;25639;53.634;9.880;2023-05-14T06:27:24;9.18;;;4.72;;
39958;SDS011;25639;53.634;9.880;2023-05-14T06:29:49;6.63;;;4.68;;
39958;SDS011;25639;53.634;9.880;2023-05-14T06:32:15;6.68;;;4.78;;
39958;SDS011;25639;53.634;9.880;2023-05-14T06:34:40;6.45;;;4.70;;
39958;SDS011;25639;53.634;9.880;2023-05-14T06:37:06;7.63;;;4.20;;
39958;SDS011;25639;53.634;9.880;2023-05-14T06:39:33;11.43;;;4.10;;
39958;SDS011;25639;53.634;9.880;2023-05-14T06:41:59;6.18;;;4.55;;
39958;SDS011;25639;53.634;9.880;2023-05-14T06:44:24;4.72;;;4.22;;
39958;SDS011;25639;53.634;9.880;2023-05-14T06:46:49;6.60;;;4.10;;
39958;SDS011;25639;53.634;9.880;2023-05-14T06:49:14;8.77;;;4.25;;
39958;SDS011;25639;53.634;9.880;2023-05-14T06:51:40;9.05;;;4.28;;
39958;SDS011;25639;53.634;9.880;2023-05-14T06:54:05;8.13;;;3.83;;
39958;SDS011;25639;53.634;9.880;2023-05-14T06:56:31;6.32;;;3.92;;
39958;SDS011;25639;53.634;9.880;2023-05-14T06:58:56;7.00;;;4.07;;
39958;SDS011;25639;53.634;9.880;2023-05-14T07:01:21;6.97;;;3.80;;
39958;SDS011;25639;53.634;9.880;2023-05-14T07:03:47;6.85;;;3.75;;
39958;SDS011;25639;53.634;9.880;2023-05-14T07:06:12;5.75;;;3.50;;
39958;SDS011;25639;53.634;9.880;2023-05-14T07:08:38;6.45;;;4.22;;
39958;SDS011;25639;53.634;9.880;2023-05-14T07:11:03;9.88;;;3.90;;
39958;SDS011;25639;53.634;9.880;2023-05-14T07:13:28;6.60;;;3.60;;
39958;SDS011;25639;53.634;9.880;2023-05-14T07:15:54;3.97;;;3.22;;
39958;SDS011;25639;53.634;9.880;2023-05-14T07:18:20;8.02;;;3.50;;
39958;SDS011;25639;53.634;9.880;2023-05-14T07:20:46;4.35;;;2.95;;
39958;SDS011;25639;53.634;9.880;2023-05-14T07:23:11;6.15;;;3.58;;
39958;SDS011;25639;53.634;9.880;2023-05-14T07:25:39;5.80;;;3.28;;
39958;SDS011;25639;53.634;9.880;2023-05-14T07:28:04;4.72;;;2.88;;
39958;SDS011;25639;53.634;9.880;2023-05-14T07:30:30;5.68;;;3.10;;
39958;SDS011;25639;53.634;9.880;2023-05-14T07:32:55;4.25;;;3.10;;
39958;SDS011;25639;53.634;9.880;2023-05-14T07:35:21;4.63;;;3.28;;
39958;SDS011;25639;53.634;9.880;2023-05-14T07:37:46;4.93;;;3.10;;
39958;SDS011;25639;53.634;9.880;2023-05-14T07:40:12;7.68;;;3.10;;
39958;SDS011;25639;53.634;9.880;2023-05-14T07:42:37;4.15;;;2.88;;
39958;SDS011;25639;53.634;9.880;2023-05-14T07:45:03;4.55;;;2.75;;
39958;SDS011;25639;53.634;9.880;2023-05-14T07:47:28;5.50;;;2.90;;
39958;SDS011;25639;53.634;9.880;2023-05-14T07:49:54;6.22;;;3.67;;
39958;SDS011;25639;53.634;9.880;2023-05-14T07:52:23;5.55;;;3.42;;
39958;SDS011;25639;53.634;9.880;2023-05-14T07:54:49;5.80;;;3.30;;
39958;SDS011;25639;53.634;9.880;2023-05-14T07:57:15;3.67;;;3.00;;
39958;SDS011;25639;53.634;9.880;2023-05-14T07:59:41;12.50;;;3.72;;
39958;SDS011;25639;53.634;9.880;2023-05-14T08:02:06;5.00;;;2.90;;
39958;SDS011;25639;53.634;9.880;2023-05-14T08:04:34;4.05;;;3.20;;
39958;SDS011;25639;53.634;9.880;2023-05-14T08:06:59;9.02;;;3.35;;
39958;SDS011;25639;53.634;9.880;2023-05-14T08:09:25;5.78;;;3.20;;
39958;SDS011;25639;53.634;9.880;2023-05-14T08:11:50;6.03;;;3.15;;
39958;SDS011;25639;53.634;9.880;2023-05-14T08:14:15;10.82;;;3.67;;
39958;SDS011;25639;53.634;9.880;2023-05-14T08:16:41;3.38;;;2.97;;
39958;SDS011;25639;53.634;9.880;2023-05-14T08:19:06;8.80;;;2.97;;
39958;SDS011;25639;53.634;9.880;2023-05-14T08:21:31;7.28;;;3.20;;
39958;SDS011;25639;53.634;9.880;2023-05-14T08:23:57;6.70;;;3.20;;
39958;SDS011;25639;53.634;9.880;2023-05-14T08:26:22;5.18;;;3.10;;
39958;SDS011;25639;53.634;9.880;2023-05-14T08:28:47;5.20;;;2.88;;
39958;SDS011;25639;53.634;9.880;2023-05-14T08:31:13;6.47;;;3.33;;
39958;SDS011;25639;53.634;9.880;2023-05-14T08:33:38;9.75;;;3.25;;
39958;SDS011;25639;53.634;9.880;2023-05-14T08:36:04;4.65;;;3.05;;
39958;SDS011;25639;53.634;9.880;2023-05-14T08:38:30;4.32;;;3.00;;
39958;SDS011;25639;53.634;9.880;2023-05-14T08:40:56;6.55;;;3.17;;
39958;SDS011;25639;53.634;9.880;2023-05-14T08:43:25;7.90;;;2.88;;
39958;SDS011;25639;53.634;9.880;2023-05-14T08:45:56;5.05;;;3.30;;
39958;SDS011;25639;53.634;9.880;2023-05-14T08:48:25;5.63;;;3.10;;
39958;SDS011;25639;53.634;9.880;2023-05-14T08:50:55;12.07;;;3.00;;
39958;SDS011;25639;53.634;9.880;2023-05-14T08:53:21;10.15;;;2.97;;
39958;SDS011;25639;53.634;9.880;2023-05-14T08:55:47;4.05;;;2.85;;
39958;SDS011;25639;53.634;9.880;2023-05-14T08:58:15;6.35;;;2.40;;
39958;SDS011;25639;53.634;9.880;2023-05-14T09:00:40;4.50;;;2.75;;
39958;SDS011;25639;53.634;9.880;2023-05-14T09:03:06;5.88;;;3.28;;
39958;SDS011;25639;53.634;9.880;2023-05-14T09:05:32;6.93;;;3.63;;
39958;SDS011;25639;53.634;9.880;2023-05-14T09:07:57;10.20;;;3.38;;
39958;SDS011;25639;53.634;9.880;2023-05-14T09:10:23;3.88;;;2.95;;
39958;SDS011;25639;53.634;9.880;2023-05-14T09:12:48;6.93;;;2.72;;
39958;SDS011;25639;53.634;9.880;2023-05-14T09:15:14;6.53;;;3.17;;
39958;SDS011;25639;53.634;9.880;2023-05-14T09:17:39;5.35;;;2.90;;
39958;SDS011;25639;53.634;9.880;2023-05-14T09:20:05;6.97;;;2.80;;
39958;SDS011;25639;53.634;9.880;2023-05-14T09:22:31;6.90;;;3.00;;
39958;SDS011;25639;53.634;9.880;2023-05-14T09:25:00;6.40;;;3.13;;
39958;SDS011;25639;53.634;9.880;2023-05-14T09:27:30;7.45;;;2.95;;
39958;SDS011;25639;53.634;9.880;2023-05-14T09:30:03;10.20;;;3.13;;
39958;SDS011;25639;53.634;9.880;2023-05-14T09:32:37;4.82;;;2.92;;
39958;SDS011;25639;53.634;9.880;2023-05-14T09:35:18;4.13;;;2.70;;
39958;SDS011;25639;53.634;9.880;2023-05-14T09:37:45;4.45;;;2.60;;
39958;SDS011;25639;53.634;9.880;2023-05-14T09:40:12;6.10;;;2.58;;
39958;SDS011;25639;53.634;9.880;2023-05-14T09:42:38;5.95;;;2.25;;
39958;SDS011;25639;53.634;9.880;2023-05-14T09:45:05;7.70;;;2.90;;
39958;SDS011;25639;53.634;9.880;2023-05-14T09:47:31;7.60;;;2.85;;
39958;SDS011;25639;53.634;9.880;2023-05-14T09:49:58;5.72;;;2.67;;
39958;SDS011;25639;53.634;9.880;2023-05-14T09:52:23;3.45;;;2.72;;
39958;SDS011;25639;53.634;9.880;2023-05-14T09:54:51;6.07;;;2.70;;
39958;SDS011;25639;53.634;9.880;2023-05-14T09:57:17;5.03;;;2.40;;
39958;SDS011;25639;53.634;9.880;2023-05-14T09:59:42;6.50;;;2.70;;
39958;SDS011;25639;53.634;9.880;2023-05-14T10:02:11;6.82;;;2.60;;
39958;SDS011;25639;53.634;9.880;2023-05-14T10:04:45;9.73;;;2.88;;
39958;SDS011;25639;53.634;9.880;2023-05-14T10:07:12;8.82;;;2.78;;
39958;SDS011;25639;53.634;9.880;2023-05-14T10:09:38;9.32;;;2.80;;
39958;SDS011;25639;53.634;9.880;2023-05-14T10:12:05;8.15;;;2.55;;
39958;SDS011;25639;53.634;9.880;2023-05-14T10:14:32;8.18;;;3.17;;
39958;SDS011;25639;53.634;9.880;2023-05-14T10:17:02;12.88;;;2.75;;
39958;SDS011;25639;53.634;9.880;2023-05-14T10:19:31;6.65;;;2.90;;
39958;SDS011;25639;53.634;9.880;2023-05-14T10:22:02;4.85;;;2.40;;
39958;SDS011;25639;53.634;9.880;2023-05-14T10:24:29;7.75;;;2.63;;
39958;SDS011;25639;53.634;9.880;2023-05-14T10:26:56;4.47;;;2.35;;
39958;SDS011;25639;53.634;9.880;2023-05-14T10:29:35;4.50;;;3.08;;
39958;SDS011;25639;53.634;9.880;2023-05-14T10:32:05;3.85;;;2.70;;
39958;SDS011;25639;53.634;9.880;2023-05-14T10:34:33;5.97;;;2.70;;
39958;SDS011;25639;53.634;9.880;2023-05-14T10:37:06;5.05;;;3.10;;
39958;SDS011;25639;53.634;9.880;2023-05-14T10:42:07;6.50;;;2.65;;
39958;SDS011;25639;53.634;9.880;2023-05-14T10:44:34;6.03;;;2.63;;
39958;SDS011;25639;53.634;9.880;2023-05-14T10:47:04;5.68;;;2.55;;
39958;SDS011;25639;53.634;9.880;2023-05-14T10:49:31;6.63;;;2.70;;
39958;SDS011;25639;53.634;9.880;2023-05-14T10:51:57;5.43;;;2.38;;
39958;SDS011;25639;53.634;9.880;2023-05-14T10:54:23;4.40;;;2.80;;
39958;SDS011;25639;53.634;9.880;2023-05-14T10:56:48;4.82;;;2.60;;
39958;SDS011;25639;53.634;9.880;2023-05-14T10:59:15;6.03;;;2.90;;
39958;SDS011;25639;53.634;9.880;2023-05-14T11:01:41;3.33;;;2.90;;
39958;SDS011;25639;53.634;9.880;2023-05-14T11:04:06;6.22;;;2.65;;
39958;SDS011;25639;53.634;9.880;2023-05-14T11:06:33;4.32;;;2.78;;
39958;SDS011;25639;53.634;9.880;2023-05-14T11:09:00;6.57;;;2.88;;
39958;SDS011;25639;53.634;9.880;2023-05-14T11:11:26;8.73;;;2.75;;
39958;SDS011;25639;53.634;9.880;2023-05-14T11:13:52;4.88;;;2.60;;
39958;SDS011;25639;53.634;9.880;2023-05-14T11:16:18;6.55;;;2.85;;
39958;SDS011;25639;53.634;9.880;2023-05-14T11:18:46;5.47;;;2.63;;
39958;SDS011;25639;53.634;9.880;2023-05-14T11:21:11;5.15;;;2.70;;
39958;SDS011;25639;53.634;9.880;2023-05-14T11:23:37;6.55;;;2.72;;
39958;SDS011;25639;53.634;9.880;2023-05-14T11:26:02;6.45;;;2.60;;
39958;SDS011;25639;53.634;9.880;2023-05-14T11:28:27;7.55;;;2.70;;
39958;SDS011;25639;53.634;9.880;2023-05-14T11:30:53;5.53;;;2.60;;
39958;SDS011;25639;53.634;9.880;2023-05-14T11:33:19;7.30;;;2.60;;
39958;SDS011;25639;53.634;9.880;2023-05-14T11:35:45;7.00;;;3.00;;
39958;SDS011;25639;53.634;9.880;2023-05-14T11:38:15;5.15;;;2.90;;
39958;SDS011;25639;53.634;9.880;2023-05-14T11:40:50;7.20;;;2.83;;
39958;SDS011;25639;53.634;9.880;2023-05-14T11:43:25;7.88;;;2.90;;
39958;SDS011;25639;53.634;9.880;2023-05-14T11:45:53;4.05;;;2.60;;
39958;SDS011;25639;53.634;9.880;2023-05-14T11:48:19;6.20;;;2.80;;
39958;SDS011;25639;53.634;9.880;2023-05-14T11:50:46;8.00;;;2.70;;
39958;SDS011;25639;53.634;9.880;2023-05-14T11:53:15;12.05;;;3.17;;
39958;SDS011;25639;53.634;9.880;2023-05-14T11:55:41;6.32;;;2.85;;
39958;SDS011;25639;53.634;9.880;2023-05-14T11:58:07;6.22;;;2.53;;
39958;SDS011;25639;53.634;9.880;2023-05-14T12:00:32;5.63;;;2.90;;
39958;SDS011;25639;53.634;9.880;2023-05-14T12:02:58;8.52;;;2.65;;
39958;SDS011;25639;53.634;9.880;2023-05-14T12:05:23;5.38;;;2.60;;
39958;SDS011;25639;53.634;9.880;2023-05-14T12:07:49;7.85;;;3.30;;
39958;SDS011;25639;53.634;9.880;2023-05-14T12:10:14;5.28;;;2.78;;
39958;SDS011;25639;53.634;9.880;2023-05-14T12:12:39;5.45;;;2.67;;
39958;SDS011;25639;53.634;9.880;2023-05-14T12:15:13;6.75;;;3.03;;
39958;SDS011;25639;53.634;9.880;2023-05-14T12:17:40;7.25;;;3.08;;
39958;SDS011;25639;53.634;9.880;2023-05-14T12:20:09;5.50;;;2.63;;
39958;SDS011;25639;53.634;9.880;2023-05-14T12:22:36;4.85;;;3.33;;
39958;SDS011;25639;53.634;9.880;2023-05-14T12:25:01;8.95;;;2.80;;
39958;SDS011;25639;53.634;9.880;2023-05-14T12:27:27;5.10;;;2.92;;
39958;SDS011;25639;53.634;9.880;2023-05-14T12:29:58;7.45;;;3.15;;
39958;SDS011;25639;53.634;9.880;2023-05-14T12:32:24;5.53;;;2.75;;
39958;SDS011;25639;53.634;9.880;2023-05-14T12:34:50;4.20;;;2.90;;
39958;SDS011;25639;53.634;9.880;2023-05-14T12:37:15;6.30;;;2.80;;
39958;SDS011;25639;53.634;9.880;2023-05-14T12:39:42;9.40;;;3.25;;
39958;SDS011;25639;53.634;9.880;2023-05-14T12:42:07;5.88;;;2.92;;
39958;SDS011;25639;53.634;9.880;2023-05-14T12:44:33;4.68;;;2.83;;
39958;SDS011;25639;53.634;9.880;2023-05-14T12:46:58;7.25;;;3.25;;
39958;SDS011;25639;53.634;9.880;2023-05-14T12:49:23;7.47;;;3.17;;
39958;SDS011;25639;53.634;9.880;2023-05-14T12:51:48;9.68;;;3.08;;
39958;SDS011;25639;53.634;9.880;2023-05-14T12:54:14;7.38;;;3.00;;
39958;SDS011;25639;53.634;9.880;2023-05-14T12:56:40;6.13;;;2.90;;
39958;SDS011;25639;53.634;9.880;2023-05-14T12:59:05;3.92;;;2.60;;
39958;SDS011;25639;53.634;9.880;2023-05-14T13:01:30;4.78;;;2.80;;
39958;SDS011;25639;53.634;9.880;2023-05-14T13:03:56;7.55;;;3.10;;
39958;SDS011;25639;53.634;9.880;2023-05-14T13:06:22;3.67;;;2.75;;
39958;SDS011;25639;53.634;9.880;2023-05-14T13:08:47;5.47;;;3.17;;
39958;SDS011;25639;53.634;9.880;2023-05-14T13:11:13;6.60;;;2.90;;
39958;SDS011;25639;53.634;9.880;2023-05-14T13:13:38;4.90;;;2.75;;
39958;SDS011;25639;53.634;9.880;2023-05-14T13:16:04;8.25;;;3.05;;
39958;SDS011;25639;53.634;9.880;2023-05-14T13:18:29;8.07;;;3.10;;
39958;SDS011;25639;53.634;9.880;2023-05-14T13:20:54;4.53;;;2.95;;
39958;SDS011;25639;53.634;9.880;2023-05-14T13:23:23;5.65;;;3.17;;
39958;SDS011;25639;53.634;9.880;2023-05-14T13:25:48;7.20;;;3.13;;
39958;SDS011;25639;53.634;9.880;2023-05-14T13:28:13;5.43;;;2.70;;
39958;SDS011;25639;53.634;9.880;2023-05-14T13:30:38;5.95;;;3.13;;
39958;SDS011;25639;53.634;9.880;2023-05-14T13:33:04;7.28;;;3.35;;
39958;SDS011;25639;53.634;9.880;2023-05-14T13:35:29;5.95;;;3.35;;
39958;SDS011;25639;53.634;9.880;2023-05-14T13:37:55;6.85;;;2.90;;
39958;SDS011;25639;53.634;9.880;2023-05-14T13:40:20;5.97;;;3.10;;
39958;SDS011;25639;53.634;9.880;2023-05-14T13:42:45;13.10;;;5.43;;
39958;SDS011;25639;53.634;9.880;2023-05-14T13:45:11;30.92;;;11.70;;
39958;SDS011;25639;53.634;9.880;2023-05-14T13:47:37;15.43;;;6.60;;
39958;SDS011;25639;53.634;9.880;2023-05-14T13:50:02;11.70;;;3.33;;
39958;SDS011;25639;53.634;9.880;2023-05-14T13:52:28;9.77;;;3.40;;
39958;SDS011;25639;53.634;9.880;2023-05-14T13:54:53;15.02;;;5.18;;
39958;SDS011;25639;53.634;9.880;2023-05-14T13:57:18;9.23;;;5.30;;
39958;SDS011;25639;53.634;9.880;2023-05-14T13:59:45;4.88;;;3.40;;
39958;SDS011;25639;53.634;9.880;2023-05-14T14:02:11;6.85;;;3.08;;
39958;SDS011;25639;53.634;9.880;2023-05-14T14:04:37;6.13;;;2.80;;
39958;SDS011;25639;53.634;9.880;2023-05-14T14:07:03;9.63;;;3.03;;
39958;SDS011;25639;53.634;9.880;2023-05-14T14:09:28;4.05;;;3.08;;
39958;SDS011;25639;53.634;9.880;2023-05-14T14:11:58;6.90;;;2.70;;
39958;SDS011;25639;53.634;9.880;2023-05-14T14:14:24;5.95;;;2.70;;
39958;SDS011;25639;53.634;9.880;2023-05-14T14:16:49;5.72;;;2.70;;
39958;SDS011;25639;53.634;9.880;2023-05-14T14:19:14;10.48;;;3.42;;
39958;SDS011;25639;53.634;9.880;2023-05-14T14:21:40;7.28;;;3.05;;
39958;SDS011;25639;53.634;9.880;2023-05-14T14:24:06;4.78;;;2.63;;
39958;SDS011;25639;53.634;9.880;2023-05-14T14:26:32;5.43;;;2.67;;
39958;SDS011;25639;53.634;9.880;2023-05-14T14:28:57;6.72;;;2.90;;
39958;SDS011;25639;53.634;9.880;2023-05-14T14:31:22;3.60;;;2.33;;
39958;SDS011;25639;53.634;9.880;2023-05-14T14:33:48;4.25;;;2.50;;
39958;SDS011;25639;53.634;9.880;2023-05-14T14:36:13;5.35;;;3.10;;
39958;SDS011;25639;53.634;9.880;2023-05-14T14:38:38;5.65;;;2.83;;
39958;SDS011;25639;53.634;9.880;2023-05-14T14:41:04;4.35;;;2.80;;
39958;SDS011;25639;53.634;9.880;2023-05-14T14:43:31;5.68;;;2.47;;
39958;SDS011;25639;53.634;9.880;2023-05-14T14:45:57;5.63;;;2.70;;
39958;SDS011;25639;53.634;9.880;2023-05-14T14:48:24;8.13;;;3.20;;
39958;SDS011;25639;53.634;9.880;2023-05-14T14:51:03;6.68;;;2.60;;